createdAt,value
2023-02-26T00:01:32.404Z,100778.56
2023-02-26T00:04:01.688Z,100772.13
2023-02-26T00:06:30.015Z,100773.56
2023-02-26T00:08:59.369Z,100786.72
2023-02-26T00:11:27.445Z,100782.16
2023-02-26T00:13:55.598Z,100793.81
2023-02-26T00:16:28.540Z,100795.22
2023-02-26T00:18:56.745Z,100802.56
2023-02-26T00:21:25.707Z,100793.03
2023-02-26T00:23:53.577Z,100789.16
2023-02-26T00:26:24.673Z,100793.94
2023-02-26T00:28:53.061Z,100804.31
2023-02-26T00:31:24.727Z,100801.25
2023-02-26T00:33:53.594Z,100813.09
2023-02-26T00:36:24.877Z,100830.56
2023-02-26T00:39:02.466Z,100823.50
2023-02-26T00:41:32.364Z,100834.91
2023-02-26T00:44:00.652Z,100841.44
2023-02-26T00:46:37.259Z,100846.13
2023-02-26T00:49:13.210Z,100854.44
2023-02-26T00:51:44.553Z,100857.63
2023-02-26T00:54:19.528Z,100856.53
2023-02-26T00:56:49.223Z,100865.53
2023-02-26T00:59:17.303Z,100853.88
2023-02-26T01:01:45.274Z,100868.56
2023-02-26T01:04:14.614Z,100865.53
2023-02-26T01:06:45.436Z,100869.94
2023-02-26T01:09:19.279Z,100866.91
2023-02-26T01:11:48.838Z,100870.22
2023-02-26T01:14:17.061Z,100865.78
2023-02-26T01:16:52.167Z,100871.28
2023-02-26T01:19:27.872Z,100875.19
2023-02-26T01:22:00.651Z,100874.09
2023-02-26T01:24:29.795Z,100870.78
2023-02-26T01:26:59.101Z,100872.69
2023-02-26T01:29:27.216Z,100877.56
2023-02-26T01:31:59.351Z,100882.09
2023-02-26T01:34:32.147Z,100891.47
2023-02-26T01:37:05.252Z,100890.91
2023-02-26T01:39:39.990Z,100892.81
2023-02-26T01:42:14.966Z,100886.38
2023-02-26T01:44:45.624Z,100873.09
2023-02-26T01:47:18.791Z,100879.38
2023-02-26T01:49:47.175Z,100883.06
2023-02-26T01:52:51.457Z,100884.03
2023-02-26T01:55:21.384Z,100900.31
2023-02-26T01:57:50.835Z,100892.66
2023-02-26T02:00:19.584Z,100886.69
2023-02-26T02:02:47.615Z,100893.19
2023-02-26T02:05:21.004Z,100899.13
2023-02-26T02:07:48.763Z,100901.72
2023-02-26T02:10:16.549Z,100901.34
2023-02-26T02:12:49.412Z,100909.03
2023-02-26T02:15:23.603Z,100904.22
2023-02-26T02:17:52.724Z,100907.81
2023-02-26T02:20:31.648Z,100912.09
2023-02-26T02:23:08.960Z,100913.41
2023-02-26T02:25:55.146Z,100917.88
2023-02-26T02:28:32.012Z,100916.78
2023-02-26T02:31:07.614Z,100922.88
2023-02-26T02:33:37.933Z,100923.66
2023-02-26T02:36:08.879Z,100927.44
2023-02-26T02:38:39.446Z,100917.81
2023-02-26T02:41:11.014Z,100914.56
2023-02-26T02:43:40.495Z,100912.72
2023-02-26T02:46:12.592Z,100913.34
2023-02-26T02:48:42.897Z,100922.63
2023-02-26T02:51:14.158Z,100933.13
2023-02-26T02:53:45.645Z,100936.22
2023-02-26T02:56:16.786Z,100931.56
2023-02-26T02:58:48.452Z,100930.13
2023-02-26T03:01:20.183Z,100933.13
2023-02-26T03:03:51.960Z,100941.91
2023-02-26T03:06:19.712Z,100936.41
2023-02-26T03:08:48.833Z,100938.97
2023-02-26T03:11:17.131Z,100941.44
2023-02-26T03:13:46.263Z,100950.06
2023-02-26T03:16:31.215Z,100945.66
2023-02-26T03:19:03.055Z,100945.50
2023-02-26T03:21:45.278Z,100952.50
2023-02-26T03:24:16.691Z,100954.56
2023-02-26T03:26:48.517Z,100957.38
2023-02-26T03:29:21.647Z,100956.94
2023-02-26T03:31:55.737Z,100967.13
2023-02-26T03:34:27.923Z,100975.25
2023-02-26T03:36:59.193Z,100976.78
2023-02-26T03:39:30.890Z,100981.16
2023-02-26T03:42:03.352Z,100975.16
2023-02-26T03:44:35.060Z,100981.69
2023-02-26T03:47:07.615Z,100984.88
2023-02-26T03:49:37.452Z,100991.16
2023-02-26T03:52:06.253Z,100995.78
2023-02-26T03:54:36.021Z,100999.09
2023-02-26T03:57:03.716Z,101004.97
2023-02-26T03:59:32.067Z,101016.22
2023-02-26T04:02:02.244Z,101014.50
2023-02-26T04:04:33.116Z,101016.88
2023-02-26T04:07:01.821Z,101021.47
2023-02-26T04:09:29.500Z,101021.56
2023-02-26T04:11:58.318Z,101025.97
2023-02-26T04:14:25.972Z,101027.63
2023-02-26T04:16:53.734Z,101024.31
2023-02-26T04:19:21.416Z,101030.31
2023-02-26T04:21:50.558Z,101029.00
2023-02-26T04:24:18.223Z,101026.38
2023-02-26T04:26:45.978Z,101025.44
2023-02-26T04:29:13.942Z,101035.50
2023-02-26T04:31:41.815Z,101041.50
2023-02-26T04:34:09.583Z,101047.63
2023-02-26T04:36:37.213Z,101055.09
2023-02-26T04:39:06.403Z,101053.66
2023-02-26T04:41:34.199Z,101064.19
2023-02-26T04:44:01.847Z,101063.22
2023-02-26T04:46:29.891Z,101067.31
2023-02-26T04:48:57.661Z,101062.00
2023-02-26T04:51:25.415Z,101065.03
2023-02-26T04:53:53.189Z,101067.31
2023-02-26T04:56:22.577Z,101072.50
2023-02-26T04:58:50.521Z,101079.72
2023-02-26T05:01:18.247Z,101086.72
2023-02-26T05:03:45.956Z,101085.19
2023-02-26T05:06:13.736Z,101091.22
2023-02-26T05:08:43.082Z,101097.47
2023-02-26T05:11:10.815Z,101107.69
2023-02-26T05:13:40.025Z,101105.31
2023-02-26T05:16:08.633Z,101123.25
2023-02-26T05:18:36.344Z,101113.50
2023-02-26T05:21:04.681Z,101103.91
2023-02-26T05:23:32.575Z,101112.50
2023-02-26T05:26:00.903Z,101116.34
2023-02-26T05:28:29.153Z,101121.59
2023-02-26T05:30:58.934Z,101126.63
2023-02-26T05:33:26.839Z,101129.75
2023-02-26T05:35:54.731Z,101134.91
2023-02-26T05:38:22.817Z,101131.38
2023-02-26T05:40:50.609Z,101137.03
2023-02-26T05:43:18.250Z,101148.97
2023-02-26T05:45:45.916Z,101145.50
2023-02-26T05:48:14.915Z,101164.88
2023-02-26T05:50:42.745Z,101165.34
2023-02-26T05:53:10.652Z,101176.31
2023-02-26T05:55:38.459Z,101166.28
2023-02-26T05:58:06.157Z,101174.66
2023-02-26T06:00:33.839Z,101177.91
2023-02-26T06:03:01.761Z,101197.72
2023-02-26T06:05:31.078Z,101203.31
2023-02-26T06:07:58.836Z,101198.53
2023-02-26T06:10:26.468Z,101210.94
2023-02-26T06:12:54.249Z,101216.91
2023-02-26T06:15:22.220Z,101217.88
2023-02-26T06:17:49.936Z,101223.59
2023-02-26T06:20:18.086Z,101230.50
2023-02-26T06:22:47.161Z,101232.66
2023-02-26T06:25:15.364Z,101240.03
2023-02-26T06:27:43.032Z,101245.19
2023-02-26T06:30:11.892Z,101247.78
2023-02-26T06:32:39.732Z,101246.94
2023-02-26T06:35:08.515Z,101259.88
2023-02-26T06:37:36.169Z,101262.41
2023-02-26T06:40:06.359Z,101262.88
2023-02-26T06:42:34.050Z,101270.72
2023-02-26T06:45:01.693Z,101273.22
2023-02-26T06:47:29.655Z,101275.66
2023-02-26T06:49:57.295Z,101274.09
2023-02-26T06:52:25.094Z,101276.50
2023-02-26T06:54:52.774Z,101285.47
2023-02-26T06:57:22.214Z,101270.91
2023-02-26T06:59:51.045Z,101286.88
2023-02-26T07:02:20.227Z,101282.09
2023-02-26T07:04:47.911Z,101292.94
2023-02-26T07:07:17.551Z,101300.03
2023-02-26T07:09:46.119Z,101292.84
2023-02-26T07:12:14.153Z,101296.94
2023-02-26T07:14:44.967Z,101304.03
2023-02-26T07:17:20.300Z,101304.78
2023-02-26T07:19:48.795Z,101309.66
2023-02-26T07:22:17.228Z,101317.88
2023-02-26T07:24:45.222Z,101316.41
2023-02-26T07:27:13.713Z,101323.59
2023-02-26T07:29:41.469Z,101321.13
2023-02-26T07:32:10.893Z,101324.28
2023-02-26T07:34:38.537Z,101328.00
2023-02-26T07:37:06.247Z,101325.38
2023-02-26T07:39:33.908Z,101335.97
2023-02-26T07:42:01.558Z,101339.28
2023-02-26T07:44:29.477Z,101345.06
2023-02-26T07:46:57.157Z,101351.06
2023-02-26T07:49:26.485Z,101337.09
2023-02-26T07:51:54.773Z,101358.50
2023-02-26T07:54:22.815Z,101356.44
2023-02-26T07:56:50.702Z,101352.88
2023-02-26T07:59:18.360Z,101364.44
2023-02-26T08:01:46.206Z,101363.66
2023-02-26T08:04:13.902Z,101363.91
2023-02-26T08:06:42.958Z,101371.16
2023-02-26T08:09:10.681Z,101365.81
2023-02-26T08:11:40.497Z,101365.25
2023-02-26T08:14:08.808Z,101370.31
2023-02-26T08:16:36.455Z,101383.91
2023-02-26T08:19:04.110Z,101381.19
2023-02-26T08:21:32.023Z,101380.09
2023-02-26T08:24:01.392Z,101373.81
2023-02-26T08:26:29.170Z,101381.00
2023-02-26T08:28:56.831Z,101390.44
2023-02-26T08:31:24.584Z,101381.53
2023-02-26T08:33:52.301Z,101385.72
2023-02-26T08:36:21.909Z,101402.88
2023-02-26T08:38:49.575Z,101392.72
2023-02-26T08:41:18.828Z,101386.00
2023-02-26T08:43:46.471Z,101414.84
2023-02-26T08:46:14.167Z,101398.59
2023-02-26T08:48:41.828Z,101396.66
2023-02-26T08:51:09.576Z,101408.63
2023-02-26T08:53:37.211Z,101411.16
2023-02-26T08:56:05.300Z,101424.00
2023-02-26T08:58:34.362Z,101426.22
2023-02-26T09:01:02.248Z,101433.72
2023-02-26T09:03:30.046Z,101435.25
2023-02-26T09:05:57.719Z,101446.66
2023-02-26T09:08:25.602Z,101441.22
2023-02-26T09:10:53.391Z,101444.44
2023-02-26T09:13:21.010Z,101450.59
2023-02-26T09:15:51.518Z,101452.91
2023-02-26T09:18:19.202Z,101472.69
2023-02-26T09:20:46.861Z,101458.13
2023-02-26T09:23:14.680Z,101461.88
2023-02-26T09:25:42.378Z,101452.84
2023-02-26T09:28:10.103Z,101456.88
2023-02-26T09:30:37.808Z,101470.50
2023-02-26T09:33:06.884Z,101474.28
2023-02-26T09:35:34.546Z,101477.47
2023-02-26T09:38:03.879Z,101473.81
2023-02-26T09:40:39.486Z,101489.69
2023-02-26T09:43:20.996Z,101484.41
2023-02-26T09:45:49.842Z,101490.53
2023-02-26T09:48:20.421Z,101484.25
2023-02-26T09:50:49.546Z,101475.44
2023-02-26T09:53:19.956Z,101515.41
2023-02-26T09:55:50.256Z,101476.50
2023-02-26T09:58:31.813Z,101479.69
2023-02-26T10:01:06.092Z,101483.16
2023-02-26T10:03:39.682Z,101504.09
2023-02-26T10:06:19.690Z,101495.41
2023-02-26T10:08:53.050Z,101483.66
2023-02-26T10:11:24.054Z,101492.44
2023-02-26T10:13:58.308Z,101499.91
2023-02-26T10:16:28.875Z,101512.22
2023-02-26T10:19:00.994Z,101505.56
2023-02-26T10:21:32.151Z,101512.72
2023-02-26T10:24:02.911Z,101520.63
2023-02-26T10:26:32.055Z,101508.16
2023-02-26T10:38:05.841Z,101541.72
2023-02-26T10:40:37.732Z,101532.91
2023-02-26T10:43:10.835Z,101543.38
2023-02-26T10:45:48.618Z,101540.31
2023-02-26T10:48:31.795Z,101530.63
2023-02-26T10:51:02.789Z,101540.34
2023-02-26T10:53:32.179Z,101554.56
2023-02-26T10:56:04.897Z,101569.91
2023-02-26T10:58:32.777Z,101543.88
2023-02-26T11:01:00.878Z,101554.03
2023-02-26T11:03:33.673Z,101546.63
2023-02-26T11:06:04.767Z,101540.53
2023-02-26T11:08:34.645Z,101536.78
2023-02-26T11:11:04.689Z,101557.31
2023-02-26T11:13:33.921Z,101546.16
2023-02-26T11:16:04.380Z,101544.31
2023-02-26T11:18:36.460Z,101536.72
2023-02-26T11:21:07.373Z,101539.97
2023-02-26T11:23:36.396Z,101534.09
2023-02-26T11:26:06.136Z,101542.81
2023-02-26T11:28:39.227Z,101558.34
2023-02-26T11:31:08.644Z,101555.13
2023-02-26T11:33:39.589Z,101531.75
2023-02-26T11:36:11.068Z,101532.25
2023-02-26T11:38:39.034Z,101545.91
2023-02-26T11:41:07.107Z,101537.72
2023-02-26T11:43:39.081Z,101534.56
2023-02-26T11:46:07.291Z,101544.94
2023-02-26T11:48:40.951Z,101550.00
2023-02-26T11:51:14.370Z,101538.59
2023-02-26T11:53:44.536Z,101562.94
2023-02-26T11:56:14.844Z,101562.53
2023-02-26T11:58:46.134Z,101563.00
2023-02-26T12:01:16.650Z,101588.88
2023-02-26T12:03:46.608Z,101573.91
2023-02-26T12:06:18.990Z,101562.56
2023-02-26T12:08:47.089Z,101567.22
2023-02-26T12:11:35.607Z,101550.63
2023-02-26T12:14:13.068Z,101536.38
2023-02-26T12:16:47.840Z,101529.53
2023-02-26T12:19:21.135Z,101545.19
2023-02-26T12:22:05.841Z,101533.91
2023-02-26T12:24:47.541Z,101522.66
2023-02-26T12:27:21.392Z,101519.94
2023-02-26T12:30:04.960Z,101536.22
2023-02-26T12:32:43.977Z,101539.03
2023-02-26T12:35:36.422Z,101532.34
2023-02-26T12:38:15.119Z,101533.88
2023-02-26T12:40:57.813Z,101532.41
2023-02-26T12:43:34.119Z,101538.66
2023-02-26T12:46:08.838Z,101537.50
2023-02-26T12:48:51.580Z,101554.09
2023-02-26T12:51:27.302Z,101556.34
2023-02-26T12:54:06.498Z,101566.94
2023-02-26T12:56:46.885Z,101560.94
2023-02-26T12:59:35.096Z,101535.81
2023-02-26T13:02:19.180Z,101536.78
2023-02-26T13:05:06.130Z,101525.81
2023-02-26T13:07:49.561Z,101537.28
2023-02-26T13:10:28.143Z,101542.31
2023-02-26T13:13:08.859Z,101566.88
2023-02-26T13:15:50.647Z,101562.63
2023-02-26T13:18:25.012Z,101554.03
2023-02-26T13:20:58.438Z,101551.72
2023-02-26T13:23:28.883Z,101542.53
2023-02-26T13:26:01.373Z,101549.34
2023-02-26T13:28:39.361Z,101553.50
2023-02-26T13:31:10.126Z,101541.34
2023-02-26T13:33:38.419Z,101532.72
2023-02-26T13:36:08.392Z,101548.19
2023-02-26T13:38:46.725Z,101529.22
2023-02-26T13:41:22.867Z,101518.50
2023-02-26T13:44:03.037Z,101514.97
2023-02-26T13:46:41.065Z,101517.75
2023-02-26T13:49:13.481Z,101527.22
2023-02-26T13:51:43.074Z,101518.63
2023-02-26T13:54:30.741Z,101507.97
2023-02-26T13:57:10.699Z,101521.38
2023-02-26T13:59:50.431Z,101505.41
2023-02-26T14:02:38.403Z,101528.09
2023-02-26T14:05:12.581Z,101524.38
2023-02-26T14:07:50.712Z,101521.47
2023-02-26T14:14:15.315Z,101505.03
2023-02-26T14:16:44.897Z,101532.13
2023-02-26T14:19:29.430Z,101539.50
2023-02-26T14:21:59.127Z,101522.66
2023-02-26T14:24:36.841Z,101522.25
2023-02-26T14:27:27.181Z,101514.25
2023-02-26T14:30:05.168Z,101518.75
2023-02-26T14:32:34.475Z,101520.97
2023-02-26T14:35:06.647Z,101525.16
2023-02-26T14:37:37.299Z,101501.56
2023-02-26T14:40:08.908Z,101501.22
2023-02-26T14:42:39.731Z,101523.94
2023-02-26T14:45:18.858Z,101523.53
2023-02-26T14:47:48.532Z,101529.28
2023-02-26T14:50:18.376Z,101514.91
2023-02-26T14:52:55.192Z,101523.31
2023-02-26T14:55:31.363Z,101529.19
2023-02-26T14:58:11.332Z,101524.56
2023-02-26T15:00:46.355Z,101522.28
2023-02-26T15:03:23.978Z,101538.88
2023-02-26T15:06:02.789Z,101524.19
2023-02-26T15:08:38.196Z,101532.41
2023-02-26T15:11:14.775Z,101537.50
2023-02-26T15:14:00.161Z,101513.44
2023-02-26T15:16:39.508Z,101512.06
2023-02-26T15:19:17.266Z,101533.09
2023-02-26T15:21:57.216Z,101522.72
2023-02-26T15:24:25.264Z,101534.31
2023-02-26T15:26:55.245Z,101529.66
2023-02-26T15:29:29.078Z,101540.38
2023-02-26T15:32:01.448Z,101556.84
2023-02-26T15:34:31.029Z,101570.19
2023-02-26T15:36:59.254Z,101559.81
2023-02-26T15:39:26.944Z,101572.56
2023-02-26T15:41:57.506Z,101591.38
2023-02-26T15:44:26.980Z,101588.19
2023-02-26T15:46:56.510Z,101579.38
2023-02-26T15:49:29.247Z,101578.38
2023-02-26T15:51:57.867Z,101578.94
2023-02-26T15:54:28.429Z,101584.31
2023-02-26T15:56:56.397Z,101579.41
2023-02-26T15:59:28.441Z,101582.44
2023-02-26T16:01:56.418Z,101583.38
2023-02-26T16:04:25.821Z,101572.00
2023-02-26T16:06:55.991Z,101579.44
2023-02-26T16:09:29.877Z,101587.34
2023-02-26T16:12:00.224Z,101585.84
2023-02-26T16:14:31.617Z,101573.91
2023-02-26T16:16:59.944Z,101591.81
2023-02-26T16:19:34.220Z,101597.06
2023-02-26T16:22:04.103Z,101580.81
2023-02-26T16:24:31.987Z,101586.81
2023-02-26T16:27:04.808Z,101595.13
2023-02-26T16:29:34.334Z,101598.50
2023-02-26T16:32:04.841Z,101602.31
2023-02-26T16:34:38.636Z,101598.50
2023-02-26T16:37:24.396Z,101593.78
2023-02-26T16:39:54.332Z,101609.06
2023-02-26T16:42:24.170Z,101600.13
2023-02-26T16:44:54.070Z,101597.44
2023-02-26T16:47:22.346Z,101598.47
2023-02-26T16:49:52.890Z,101618.69
2023-02-26T16:52:24.260Z,101625.03
2023-02-26T16:54:59.867Z,101616.91
2023-02-26T16:57:33.409Z,101627.00
2023-02-26T17:00:07.024Z,101616.09
2023-02-26T17:02:36.265Z,101625.06
2023-02-26T17:05:11.307Z,101637.47
2023-02-26T17:07:48.710Z,101635.09
2023-02-26T17:10:20.730Z,101637.91
2023-02-26T17:12:50.629Z,101640.78
2023-02-26T17:15:21.050Z,101627.47
2023-02-26T17:17:49.319Z,101648.75
2023-02-26T17:20:18.772Z,101652.63
2023-02-26T17:22:46.415Z,101660.28
2023-02-26T17:25:17.890Z,101653.09
2023-02-26T17:27:46.264Z,101652.09
2023-02-26T17:30:17.151Z,101649.13
2023-02-26T17:32:45.116Z,101651.34
2023-02-26T17:35:13.968Z,101645.03
2023-02-26T17:37:43.291Z,101659.72
2023-02-26T17:40:20.672Z,101666.28
2023-02-26T17:42:48.563Z,101671.28
2023-02-26T17:45:16.761Z,101663.81
2023-02-26T17:47:46.854Z,101670.34
2023-02-26T17:50:23.911Z,101675.03
2023-02-26T17:52:53.172Z,101675.69
2023-02-26T17:55:20.999Z,101675.09
2023-02-26T17:57:48.808Z,101665.75
2023-02-26T18:00:18.377Z,101677.63
2023-02-26T18:02:46.127Z,101684.13
2023-02-26T18:05:14.303Z,101680.97
2023-02-26T18:07:42.244Z,101687.44
2023-02-26T18:10:18.110Z,101692.06
2023-02-26T18:12:45.959Z,101699.41
2023-02-26T18:15:13.881Z,101700.81
2023-02-26T18:17:41.951Z,101690.81
2023-02-26T18:20:17.655Z,101693.59
2023-02-26T18:22:48.078Z,101690.09
2023-02-26T18:25:17.938Z,101681.25
2023-02-26T18:27:45.919Z,101682.84
2023-02-26T18:30:22.448Z,101695.97
2023-02-26T18:32:50.276Z,101704.72
2023-02-26T18:35:18.624Z,101697.00
2023-02-26T18:37:46.833Z,101696.16
2023-02-26T18:40:18.886Z,101702.50
2023-02-26T18:42:46.597Z,101720.78
2023-02-26T18:45:14.276Z,101733.19
2023-02-26T18:47:42.268Z,101714.16
2023-02-26T18:50:13.911Z,101716.66
2023-02-26T18:52:41.795Z,101730.88
2023-02-26T18:55:12.058Z,101728.41
2023-02-26T18:57:42.520Z,101713.78
2023-02-26T19:00:13.975Z,101705.88
2023-02-26T19:02:42.360Z,101712.84
2023-02-26T19:05:11.418Z,101713.84
2023-02-26T19:07:39.278Z,101706.31
2023-02-26T19:10:10.897Z,101702.13
2023-02-26T19:12:38.614Z,101719.16
2023-02-26T19:15:09.128Z,101728.31
2023-02-26T19:17:39.472Z,101744.72
2023-02-26T19:20:08.806Z,101740.66
2023-02-26T19:22:36.639Z,101744.44
2023-02-26T19:25:04.947Z,101735.28
2023-02-26T19:27:32.688Z,101755.56
2023-02-26T19:30:00.515Z,101749.38
2023-02-26T19:32:29.796Z,101752.22
2023-02-26T19:34:57.736Z,101747.00
2023-02-26T19:37:26.260Z,101733.69
2023-02-26T19:39:54.150Z,101743.38
2023-02-26T19:42:21.946Z,101743.81
2023-02-26T19:44:50.061Z,101753.63
2023-02-26T19:47:17.739Z,101747.38
2023-02-26T19:49:46.902Z,101756.66
2023-02-26T19:52:14.576Z,101758.59
2023-02-26T19:54:42.639Z,101753.09
2023-02-26T19:57:10.350Z,101766.91
2023-02-26T19:59:38.073Z,101774.25
2023-02-26T20:02:06.015Z,101773.69
2023-02-26T20:04:33.899Z,101766.13
2023-02-26T20:07:03.311Z,101785.25
2023-02-26T20:09:31.121Z,101797.44
2023-02-26T20:11:58.930Z,101784.47
2023-02-26T20:14:26.907Z,101774.63
2023-02-26T20:16:54.572Z,101784.00
2023-02-26T20:19:22.252Z,101783.84
2023-02-26T20:21:49.981Z,101775.66
2023-02-26T20:24:20.116Z,101782.09
2023-02-26T20:26:49.106Z,101792.59
2023-02-26T20:29:18.419Z,101798.63
2023-02-26T20:31:49.449Z,101808.19
2023-02-26T20:34:19.405Z,101812.09
2023-02-26T20:36:49.869Z,101811.25
2023-02-26T20:39:21.004Z,101807.59
2023-02-26T20:41:50.479Z,101827.03
2023-02-26T20:44:18.691Z,101793.63
2023-02-26T20:46:46.473Z,101809.34
2023-02-26T20:49:14.492Z,101815.69
2023-02-26T20:51:43.468Z,101812.75
2023-02-26T20:54:12.802Z,101821.00
2023-02-26T20:56:41.900Z,101824.00
2023-02-26T20:59:09.664Z,101817.44
2023-02-26T21:01:37.561Z,101818.38
2023-02-26T21:04:06.670Z,101824.91
2023-02-26T21:06:34.855Z,101819.22
2023-02-26T21:09:04.159Z,101824.34
2023-02-26T21:11:35.194Z,101821.16
2023-02-26T21:14:08.135Z,101833.56
2023-02-26T21:16:36.034Z,101829.63
2023-02-26T21:19:04.476Z,101828.94
2023-02-26T21:21:32.466Z,101830.38
2023-02-26T21:24:00.506Z,101835.88
2023-02-26T21:26:28.314Z,101831.56
2023-02-26T21:28:56.027Z,101834.91
2023-02-26T21:31:25.840Z,101835.63
2023-02-26T21:33:53.918Z,101831.78
2023-02-26T21:36:22.017Z,101832.03
2023-02-26T21:38:50.423Z,101823.28
2023-02-26T21:41:18.124Z,101833.25
2023-02-26T21:43:45.785Z,101829.41
2023-02-26T21:46:13.530Z,101830.72
2023-02-26T21:48:42.716Z,101827.88
2023-02-26T21:51:10.454Z,101831.84
2023-02-26T21:53:38.124Z,101837.69
2023-02-26T21:56:06.169Z,101831.09
2023-02-26T21:58:33.893Z,101826.31
2023-02-26T22:01:01.610Z,101831.94
2023-02-26T22:03:29.356Z,101819.59
2023-02-26T22:05:58.416Z,101817.06
2023-02-26T22:08:26.378Z,101831.34
2023-02-26T22:10:54.073Z,101834.22
2023-02-26T22:13:21.862Z,101839.25
2023-02-26T22:15:49.548Z,101838.56
2023-02-26T22:18:17.232Z,101833.75
2023-02-26T22:20:44.947Z,101838.31
2023-02-26T22:23:14.141Z,101842.22
2023-02-26T22:25:42.041Z,101841.13
2023-02-26T22:28:09.935Z,101851.28
2023-02-26T22:30:37.788Z,101850.63
2023-02-26T22:33:05.710Z,101863.09
2023-02-26T22:35:33.390Z,101858.50
2023-02-26T22:38:01.552Z,101860.78
2023-02-26T22:40:30.671Z,101856.06
2023-02-26T22:42:58.782Z,101860.19
2023-02-26T22:45:28.628Z,101859.34
2023-02-26T22:47:56.381Z,101857.19
2023-02-26T22:50:24.327Z,101857.75
2023-02-26T22:52:52.068Z,101862.09
2023-02-26T22:55:19.782Z,101859.47
2023-02-26T22:57:48.821Z,101857.25
2023-02-26T23:00:19.391Z,101861.31
2023-02-26T23:02:47.973Z,101858.06
2023-02-26T23:05:16.001Z,101856.34
2023-02-26T23:07:43.812Z,101864.38
2023-02-26T23:10:14.593Z,101878.22
2023-02-26T23:12:42.950Z,101876.47
2023-02-26T23:15:12.619Z,101882.59
2023-02-26T23:17:40.462Z,101874.25
2023-02-26T23:20:10.510Z,101888.09
2023-02-26T23:22:38.785Z,101887.22
2023-02-26T23:25:06.971Z,101887.53
2023-02-26T23:27:34.627Z,101891.50
2023-02-26T23:30:02.689Z,101891.69
2023-02-26T23:32:32.107Z,101894.03
2023-02-26T23:34:59.812Z,101888.19
2023-02-26T23:37:27.479Z,101894.88
2023-02-26T23:39:55.627Z,101909.38
2023-02-26T23:42:23.318Z,101906.31
2023-02-26T23:44:50.948Z,101898.13
2023-02-26T23:47:18.585Z,101897.16
2023-02-26T23:49:47.600Z,101893.56
2023-02-26T23:52:15.253Z,101896.50
2023-02-26T23:54:42.928Z,101897.66
2023-02-26T23:57:10.661Z,101905.69
2023-02-26T23:59:38.745Z,101899.72
